sensor_id;sensor_type;location;lat;lon;timestamp;temperature;humidity
46730;DHT22;32476;50.002;11.854;2022-07-30T00:00:47;15.10;99.90
46730;DHT22;32476;50.002;11.854;2022-07-30T00:03:15;15.20;99.90
46730;DHT22;32476;50.002;11.854;2022-07-30T00:05:41;15.10;99.90
46730;DHT22;32476;50.002;11.854;2022-07-30T00:08:07;15.10;99.90
46730;DHT22;32476;50.002;11.854;2022-07-30T00:10:35;15.00;99.90
46730;DHT22;32476;50.002;11.854;2022-07-30T00:13:01;14.90;99.90
46730;DHT22;32476;50.002;11.854;2022-07-30T00:15:27;14.80;99.90
46730;DHT22;32476;50.002;11.854;2022-07-30T00:17:54;14.80;99.90
46730;DHT22;32476;50.002;11.854;2022-07-30T00:20:21;14.70;99.90
46730;DHT22;32476;50.002;11.854;2022-07-30T00:22:47;14.70;99.90
46730;DHT22;32476;50.002;11.854;2022-07-30T00:25:16;14.60;99.90
46730;DHT22;32476;50.002;11.854;2022-07-30T00:27:42;14.50;99.90
46730;DHT22;32476;50.002;11.854;2022-07-30T00:30:09;14.50;99.90
46730;DHT22;32476;50.002;11.854;2022-07-30T00:32:37;14.50;99.90
46730;DHT22;32476;50.002;11.854;2022-07-30T00:35:04;14.50;99.90
46730;DHT22;32476;50.002;11.854;2022-07-30T00:37:30;14.40;99.90
46730;DHT22;32476;50.002;11.854;2022-07-30T00:39:57;14.40;99.90
46730;DHT22;32476;50.002;11.854;2022-07-30T00:42:38;14.30;99.90
46730;DHT22;32476;50.002;11.854;2022-07-30T00:45:08;14.20;99.90
46730;DHT22;32476;50.002;11.854;2022-07-30T00:47:36;14.20;99.90
46730;DHT22;32476;50.002;11.854;2022-07-30T00:50:04;14.20;99.90
46730;DHT22;32476;50.002;11.854;2022-07-30T00:52:34;14.30;99.90
46730;DHT22;32476;50.002;11.854;2022-07-30T00:55:04;14.40;99.90
46730;DHT22;32476;50.002;11.854;2022-07-30T00:57:31;14.40;99.90
46730;DHT22;32476;50.002;11.854;2022-07-30T00:59:58;14.30;99.90
46730;DHT22;32476;50.002;11.854;2022-07-30T01:02:24;14.10;99.90
46730;DHT22;32476;50.002;11.854;2022-07-30T01:04:50;14.00;99.90
46730;DHT22;32476;50.002;11.854;2022-07-30T01:07:17;14.00;99.90
46730;DHT22;32476;50.002;11.854;2022-07-30T01:09:43;13.90;99.90
46730;DHT22;32476;50.002;11.854;2022-07-30T01:12:10;13.90;99.90
46730;DHT22;32476;50.002;11.854;2022-07-30T01:14:38;13.90;99.90
46730;DHT22;32476;50.002;11.854;2022-07-30T01:17:04;13.90;99.90
46730;DHT22;32476;50.002;11.854;2022-07-30T01:19:35;13.90;99.90
46730;DHT22;32476;50.002;11.854;2022-07-30T01:22:21;13.90;99.90
46730;DHT22;32476;50.002;11.854;2022-07-30T01:27:35;13.80;99.90
46730;DHT22;32476;50.002;11.854;2022-07-30T01:30:06;13.80;99.90
46730;DHT22;32476;50.002;11.854;2022-07-30T01:32:39;13.80;99.90
46730;DHT22;32476;50.002;11.854;2022-07-30T01:35:08;13.80;99.90
46730;DHT22;32476;50.002;11.854;2022-07-30T01:37:38;13.80;99.90
46730;DHT22;32476;50.002;11.854;2022-07-30T01:40:05;13.80;99.90
46730;DHT22;32476;50.002;11.854;2022-07-30T01:42:32;13.80;99.90
46730;DHT22;32476;50.002;11.854;2022-07-30T01:45:01;13.80;99.90
46730;DHT22;32476;50.002;11.854;2022-07-30T01:47:29;13.70;99.90
46730;DHT22;32476;50.002;11.854;2022-07-30T01:49:58;13.70;99.90
46730;DHT22;32476;50.002;11.854;2022-07-30T01:52:27;13.60;99.90
46730;DHT22;32476;50.002;11.854;2022-07-30T01:54:57;13.70;99.90
46730;DHT22;32476;50.002;11.854;2022-07-30T01:57:24;13.70;99.90
46730;DHT22;32476;50.002;11.854;2022-07-30T01:59:58;13.80;99.90
46730;DHT22;32476;50.002;11.854;2022-07-30T02:02:27;13.90;99.90
46730;DHT22;32476;50.002;11.854;2022-07-30T02:04:54;14.00;99.90
46730;DHT22;32476;50.002;11.854;2022-07-30T02:07:35;14.10;99.90
46730;DHT22;32476;50.002;11.854;2022-07-30T02:10:18;14.00;99.90
46730;DHT22;32476;50.002;11.854;2022-07-30T02:12:50;14.00;99.90
46730;DHT22;32476;50.002;11.854;2022-07-30T02:18:19;14.10;99.90
46730;DHT22;32476;50.002;11.854;2022-07-30T02:20:59;14.10;99.90
46730;DHT22;32476;50.002;11.854;2022-07-30T02:23:27;14.00;99.90
46730;DHT22;32476;50.002;11.854;2022-07-30T02:25:56;14.00;99.90
46730;DHT22;32476;50.002;11.854;2022-07-30T02:28:25;13.90;99.90
46730;DHT22;32476;50.002;11.854;2022-07-30T02:30:58;13.90;99.90
46730;DHT22;32476;50.002;11.854;2022-07-30T02:33:32;13.90;99.90
46730;DHT22;32476;50.002;11.854;2022-07-30T02:35:59;13.90;99.90
46730;DHT22;32476;50.002;11.854;2022-07-30T02:38:28;13.90;99.90
46730;DHT22;32476;50.002;11.854;2022-07-30T02:40:57;13.90;99.90
46730;DHT22;32476;50.002;11.854;2022-07-30T02:43:25;13.80;99.90
46730;DHT22;32476;50.002;11.854;2022-07-30T02:45:53;13.70;99.90
46730;DHT22;32476;50.002;11.854;2022-07-30T02:48:21;13.70;99.90
46730;DHT22;32476;50.002;11.854;2022-07-30T02:50:51;13.60;99.90
46730;DHT22;32476;50.002;11.854;2022-07-30T02:53:19;13.60;99.90
46730;DHT22;32476;50.002;11.854;2022-07-30T02:55:46;13.60;99.90
46730;DHT22;32476;50.002;11.854;2022-07-30T02:58:18;13.60;99.90
46730;DHT22;32476;50.002;11.854;2022-07-30T03:00:48;13.50;99.90
46730;DHT22;32476;50.002;11.854;2022-07-30T03:03:16;13.40;99.90
46730;DHT22;32476;50.002;11.854;2022-07-30T03:05:43;13.30;99.90
46730;DHT22;32476;50.002;11.854;2022-07-30T03:08:14;13.20;99.90
46730;DHT22;32476;50.002;11.854;2022-07-30T03:10:41;13.10;99.90
46730;DHT22;32476;50.002;11.854;2022-07-30T03:13:09;13.10;99.90
46730;DHT22;32476;50.002;11.854;2022-07-30T03:15:45;13.10;99.90
46730;DHT22;32476;50.002;11.854;2022-07-30T03:18:16;13.10;99.90
46730;DHT22;32476;50.002;11.854;2022-07-30T03:20:53;13.00;99.90
46730;DHT22;32476;50.002;11.854;2022-07-30T03:23:22;13.00;99.90
46730;DHT22;32476;50.002;11.854;2022-07-30T03:25:56;13.00;99.90
46730;DHT22;32476;50.002;11.854;2022-07-30T03:28:24;12.90;99.90
46730;DHT22;32476;50.002;11.854;2022-07-30T03:30:52;12.90;99.90
46730;DHT22;32476;50.002;11.854;2022-07-30T03:33:19;12.80;99.90
46730;DHT22;32476;50.002;11.854;2022-07-30T03:35:46;12.90;99.90
46730;DHT22;32476;50.002;11.854;2022-07-30T03:38:15;12.90;99.90
46730;DHT22;32476;50.002;11.854;2022-07-30T03:40:43;12.90;99.90
46730;DHT22;32476;50.002;11.854;2022-07-30T03:43:11;13.00;99.90
46730;DHT22;32476;50.002;11.854;2022-07-30T03:45:41;13.10;99.90
46730;DHT22;32476;50.002;11.854;2022-07-30T03:48:10;13.20;99.90
46730;DHT22;32476;50.002;11.854;2022-07-30T03:50:38;13.20;99.90
46730;DHT22;32476;50.002;11.854;2022-07-30T03:53:08;13.20;99.90
46730;DHT22;32476;50.002;11.854;2022-07-30T03:55:36;13.20;99.90
46730;DHT22;32476;50.002;11.854;2022-07-30T03:58:02;13.30;99.90
46730;DHT22;32476;50.002;11.854;2022-07-30T04:00:30;13.30;99.90
46730;DHT22;32476;50.002;11.854;2022-07-30T04:02:57;13.30;99.90
46730;DHT22;32476;50.002;11.854;2022-07-30T04:05:23;13.40;99.90
46730;DHT22;32476;50.002;11.854;2022-07-30T04:07:50;13.50;99.90
46730;DHT22;32476;50.002;11.854;2022-07-30T04:10:16;13.50;99.90
46730;DHT22;32476;50.002;11.854;2022-07-30T04:12:42;13.50;99.90
46730;DHT22;32476;50.002;11.854;2022-07-30T04:15:10;13.50;99.90
46730;DHT22;32476;50.002;11.854;2022-07-30T04:17:50;13.50;99.90
46730;DHT22;32476;50.002;11.854;2022-07-30T04:20:23;13.60;99.90
46730;DHT22;32476;50.002;11.854;2022-07-30T04:22:51;13.60;99.90
46730;DHT22;32476;50.002;11.854;2022-07-30T04:25:18;13.50;99.90
46730;DHT22;32476;50.002;11.854;2022-07-30T04:27:48;13.60;99.90
46730;DHT22;32476;50.002;11.854;2022-07-30T04:30:14;13.50;99.90
46730;DHT22;32476;50.002;11.854;2022-07-30T04:32:40;13.40;99.90
46730;DHT22;32476;50.002;11.854;2022-07-30T04:35:08;13.40;99.90
46730;DHT22;32476;50.002;11.854;2022-07-30T04:37:34;13.50;99.90
46730;DHT22;32476;50.002;11.854;2022-07-30T04:40:00;13.50;99.90
46730;DHT22;32476;50.002;11.854;2022-07-30T04:42:28;13.50;99.90
46730;DHT22;32476;50.002;11.854;2022-07-30T04:44:55;13.60;99.90
46730;DHT22;32476;50.002;11.854;2022-07-30T04:47:23;13.60;99.90
46730;DHT22;32476;50.002;11.854;2022-07-30T04:49:51;13.60;99.90
46730;DHT22;32476;50.002;11.854;2022-07-30T04:52:18;13.60;99.90
46730;DHT22;32476;50.002;11.854;2022-07-30T04:54:52;13.70;99.90
46730;DHT22;32476;50.002;11.854;2022-07-30T04:57:23;13.70;99.90
46730;DHT22;32476;50.002;11.854;2022-07-30T04:59:50;13.90;99.90
46730;DHT22;32476;50.002;11.854;2022-07-30T05:02:18;13.90;99.90
46730;DHT22;32476;50.002;11.854;2022-07-30T05:04:48;14.10;99.90
46730;DHT22;32476;50.002;11.854;2022-07-30T05:07:15;14.10;99.90
46730;DHT22;32476;50.002;11.854;2022-07-30T05:09:42;14.10;99.90
46730;DHT22;32476;50.002;11.854;2022-07-30T05:12:10;14.20;99.90
46730;DHT22;32476;50.002;11.854;2022-07-30T05:14:36;14.30;99.90
46730;DHT22;32476;50.002;11.854;2022-07-30T05:17:02;14.30;99.90
46730;DHT22;32476;50.002;11.854;2022-07-30T05:19:29;14.30;99.90
46730;DHT22;32476;50.002;11.854;2022-07-30T05:21:55;14.40;99.90
46730;DHT22;32476;50.002;11.854;2022-07-30T05:24:21;14.40;99.90
46730;DHT22;32476;50.002;11.854;2022-07-30T05:26:49;14.50;99.90
46730;DHT22;32476;50.002;11.854;2022-07-30T05:29:15;14.50;99.90
46730;DHT22;32476;50.002;11.854;2022-07-30T05:31:41;14.40;99.90
46730;DHT22;32476;50.002;11.854;2022-07-30T05:34:08;14.50;99.90
46730;DHT22;32476;50.002;11.854;2022-07-30T05:36:34;14.50;99.90
46730;DHT22;32476;50.002;11.854;2022-07-30T05:39:00;14.50;99.90
46730;DHT22;32476;50.002;11.854;2022-07-30T05:41:28;14.60;99.90
46730;DHT22;32476;50.002;11.854;2022-07-30T05:43:54;14.70;99.90
46730;DHT22;32476;50.002;11.854;2022-07-30T05:46:21;14.80;99.90
46730;DHT22;32476;50.002;11.854;2022-07-30T05:48:49;14.90;99.90
46730;DHT22;32476;50.002;11.854;2022-07-30T05:51:15;15.10;99.90
46730;DHT22;32476;50.002;11.854;2022-07-30T05:53:43;15.10;99.90
46730;DHT22;32476;50.002;11.854;2022-07-30T05:56:10;15.10;99.90
46730;DHT22;32476;50.002;11.854;2022-07-30T05:58:36;15.00;99.90
46730;DHT22;32476;50.002;11.854;2022-07-30T06:01:02;15.20;99.90
46730;DHT22;32476;50.002;11.854;2022-07-30T06:03:30;15.30;99.90
46730;DHT22;32476;50.002;11.854;2022-07-30T06:05:56;15.30;99.90
46730;DHT22;32476;50.002;11.854;2022-07-30T06:08:22;15.40;99.90
46730;DHT22;32476;50.002;11.854;2022-07-30T06:10:49;15.40;99.90
46730;DHT22;32476;50.002;11.854;2022-07-30T06:13:15;15.50;99.90
46730;DHT22;32476;50.002;11.854;2022-07-30T06:15:41;15.40;99.90
46730;DHT22;32476;50.002;11.854;2022-07-30T06:18:08;15.40;99.90
46730;DHT22;32476;50.002;11.854;2022-07-30T06:20:34;15.50;99.90
46730;DHT22;32476;50.002;11.854;2022-07-30T06:23:00;15.70;99.90
46730;DHT22;32476;50.002;11.854;2022-07-30T06:25:28;15.80;99.90
46730;DHT22;32476;50.002;11.854;2022-07-30T06:27:54;15.90;99.90
46730;DHT22;32476;50.002;11.854;2022-07-30T06:30:20;16.00;99.90
46730;DHT22;32476;50.002;11.854;2022-07-30T06:32:47;16.00;99.90
46730;DHT22;32476;50.002;11.854;2022-07-30T06:35:13;15.90;99.90
46730;DHT22;32476;50.002;11.854;2022-07-30T06:37:39;16.00;99.90
46730;DHT22;32476;50.002;11.854;2022-07-30T06:40:09;16.30;99.90
46730;DHT22;32476;50.002;11.854;2022-07-30T06:42:35;16.30;99.90
46730;DHT22;32476;50.002;11.854;2022-07-30T06:45:01;16.30;99.90
46730;DHT22;32476;50.002;11.854;2022-07-30T06:47:28;16.10;99.90
46730;DHT22;32476;50.002;11.854;2022-07-30T06:49:55;16.00;99.90
46730;DHT22;32476;50.002;11.854;2022-07-30T06:52:22;16.20;99.90
46730;DHT22;32476;50.002;11.854;2022-07-30T06:54:50;16.20;99.90
46730;DHT22;32476;50.002;11.854;2022-07-30T06:57:16;16.30;99.90
46730;DHT22;32476;50.002;11.854;2022-07-30T06:59:42;16.40;99.90
46730;DHT22;32476;50.002;11.854;2022-07-30T07:02:09;16.30;99.90
46730;DHT22;32476;50.002;11.854;2022-07-30T07:04:35;16.40;99.90
46730;DHT22;32476;50.002;11.854;2022-07-30T07:07:01;16.30;99.90
46730;DHT22;32476;50.002;11.854;2022-07-30T07:09:29;16.10;99.90
46730;DHT22;32476;50.002;11.854;2022-07-30T07:11:55;16.30;99.90
46730;DHT22;32476;50.002;11.854;2022-07-30T07:14:21;16.30;99.90
46730;DHT22;32476;50.002;11.854;2022-07-30T07:16:49;16.50;99.90
46730;DHT22;32476;50.002;11.854;2022-07-30T07:19:15;16.40;99.90
46730;DHT22;32476;50.002;11.854;2022-07-30T07:21:41;16.80;99.90
46730;DHT22;32476;50.002;11.854;2022-07-30T07:24:08;17.40;99.90
46730;DHT22;32476;50.002;11.854;2022-07-30T07:26:34;17.40;99.90
46730;DHT22;32476;50.002;11.854;2022-07-30T07:29:01;17.60;99.90
46730;DHT22;32476;50.002;11.854;2022-07-30T07:31:29;17.80;99.90
46730;DHT22;32476;50.002;11.854;2022-07-30T07:33:55;17.70;99.90
46730;DHT22;32476;50.002;11.854;2022-07-30T07:36:21;17.50;99.90
46730;DHT22;32476;50.002;11.854;2022-07-30T07:38:49;17.80;99.90
46730;DHT22;32476;50.002;11.854;2022-07-30T07:41:15;17.70;99.90
46730;DHT22;32476;50.002;11.854;2022-07-30T07:43:41;17.80;99.90
46730;DHT22;32476;50.002;11.854;2022-07-30T07:46:08;18.00;99.90
46730;DHT22;32476;50.002;11.854;2022-07-30T07:48:34;17.60;99.90
46730;DHT22;32476;50.002;11.854;2022-07-30T07:51:01;18.00;99.90
46730;DHT22;32476;50.002;11.854;2022-07-30T07:53:28;18.10;99.90
46730;DHT22;32476;50.002;11.854;2022-07-30T07:55:54;18.20;99.90
46730;DHT22;32476;50.002;11.854;2022-07-30T07:58:20;18.20;99.90
46730;DHT22;32476;50.002;11.854;2022-07-30T08:00:48;18.20;99.90
46730;DHT22;32476;50.002;11.854;2022-07-30T08:03:14;18.10;99.90
46730;DHT22;32476;50.002;11.854;2022-07-30T08:05:40;18.30;99.90
46730;DHT22;32476;50.002;11.854;2022-07-30T08:08:07;18.10;99.90
46730;DHT22;32476;50.002;11.854;2022-07-30T08:10:34;17.90;99.90
46730;DHT22;32476;50.002;11.854;2022-07-30T08:12:59;17.90;99.90
46730;DHT22;32476;50.002;11.854;2022-07-30T08:15:29;18.10;99.90
46730;DHT22;32476;50.002;11.854;2022-07-30T08:17:56;18.10;99.90
46730;DHT22;32476;50.002;11.854;2022-07-30T08:20:25;18.20;99.90
46730;DHT22;32476;50.002;11.854;2022-07-30T08:22:52;17.80;99.90
46730;DHT22;32476;50.002;11.854;2022-07-30T08:25:18;17.80;99.90
46730;DHT22;32476;50.002;11.854;2022-07-30T08:27:45;18.10;99.90
46730;DHT22;32476;50.002;11.854;2022-07-30T08:30:12;17.90;99.90
46730;DHT22;32476;50.002;11.854;2022-07-30T08:32:39;17.90;99.90
46730;DHT22;32476;50.002;11.854;2022-07-30T08:35:05;17.90;99.90
46730;DHT22;32476;50.002;11.854;2022-07-30T08:37:33;18.10;99.90
46730;DHT22;32476;50.002;11.854;2022-07-30T08:39:59;18.10;99.90
46730;DHT22;32476;50.002;11.854;2022-07-30T08:42:26;17.70;99.90
46730;DHT22;32476;50.002;11.854;2022-07-30T08:44:55;17.40;99.90
46730;DHT22;32476;50.002;11.854;2022-07-30T08:47:26;17.90;99.90
46730;DHT22;32476;50.002;11.854;2022-07-30T08:50:00;18.80;99.90
46730;DHT22;32476;50.002;11.854;2022-07-30T08:52:35;18.90;99.90
46730;DHT22;32476;50.002;11.854;2022-07-30T08:55:04;18.20;99.90
46730;DHT22;32476;50.002;11.854;2022-07-30T08:57:32;17.90;99.90
46730;DHT22;32476;50.002;11.854;2022-07-30T08:59:59;17.80;99.90
46730;DHT22;32476;50.002;11.854;2022-07-30T09:02:30;17.90;99.90
46730;DHT22;32476;50.002;11.854;2022-07-30T09:04:56;18.00;99.90
46730;DHT22;32476;50.002;11.854;2022-07-30T09:07:22;18.00;99.90
46730;DHT22;32476;50.002;11.854;2022-07-30T09:09:49;17.80;99.90
46730;DHT22;32476;50.002;11.854;2022-07-30T09:17:49;17.70;99.90
46730;DHT22;32476;50.002;11.854;2022-07-30T09:20:24;17.70;99.90
46730;DHT22;32476;50.002;11.854;2022-07-30T09:22:54;18.60;99.90
46730;DHT22;32476;50.002;11.854;2022-07-30T09:25:42;18.70;99.90
46730;DHT22;32476;50.002;11.854;2022-07-30T09:28:10;18.80;99.90
46730;DHT22;32476;50.002;11.854;2022-07-30T09:30:52;19.10;99.90
46730;DHT22;32476;50.002;11.854;2022-07-30T09:33:39;19.00;99.90
46730;DHT22;32476;50.002;11.854;2022-07-30T09:36:13;19.10;99.90
46730;DHT22;32476;50.002;11.854;2022-07-30T09:41:19;18.90;99.90
46730;DHT22;32476;50.002;11.854;2022-07-30T09:43:59;18.90;99.90
46730;DHT22;32476;50.002;11.854;2022-07-30T09:46:43;19.00;99.90
46730;DHT22;32476;50.002;11.854;2022-07-30T09:49:19;19.30;99.90
46730;DHT22;32476;50.002;11.854;2022-07-30T09:51:49;19.10;99.90
46730;DHT22;32476;50.002;11.854;2022-07-30T09:54:16;19.00;99.90
46730;DHT22;32476;50.002;11.854;2022-07-30T09:56:42;19.10;99.90
46730;DHT22;32476;50.002;11.854;2022-07-30T09:59:25;18.70;99.90
46730;DHT22;32476;50.002;11.854;2022-07-30T10:01:53;18.70;99.90
46730;DHT22;32476;50.002;11.854;2022-07-30T10:04:26;18.70;99.90
46730;DHT22;32476;50.002;11.854;2022-07-30T10:06:54;18.60;99.90
46730;DHT22;32476;50.002;11.854;2022-07-30T10:09:31;19.00;99.90
46730;DHT22;32476;50.002;11.854;2022-07-30T10:12:00;20.20;99.90
46730;DHT22;32476;50.002;11.854;2022-07-30T10:14:32;20.60;99.90
46730;DHT22;32476;50.002;11.854;2022-07-30T10:17:00;21.00;99.90
46730;DHT22;32476;50.002;11.854;2022-07-30T10:19:27;20.60;99.90
46730;DHT22;32476;50.002;11.854;2022-07-30T10:21:54;20.50;99.90
46730;DHT22;32476;50.002;11.854;2022-07-30T10:24:24;20.50;99.90
46730;DHT22;32476;50.002;11.854;2022-07-30T10:26:51;20.80;99.90
46730;DHT22;32476;50.002;11.854;2022-07-30T10:29:20;20.70;99.90
46730;DHT22;32476;50.002;11.854;2022-07-30T10:31:47;21.30;99.90
46730;DHT22;32476;50.002;11.854;2022-07-30T10:34:16;21.00;99.90
46730;DHT22;32476;50.002;11.854;2022-07-30T10:36:54;20.70;99.90
46730;DHT22;32476;50.002;11.854;2022-07-30T10:39:41;20.50;99.90
46730;DHT22;32476;50.002;11.854;2022-07-30T10:45:34;21.00;99.90
46730;DHT22;32476;50.002;11.854;2022-07-30T10:48:22;21.10;99.90
46730;DHT22;32476;50.002;11.854;2022-07-30T10:50:56;21.40;99.90
46730;DHT22;32476;50.002;11.854;2022-07-30T10:56:18;21.20;99.90
46730;DHT22;32476;50.002;11.854;2022-07-30T10:59:05;21.40;99.90
46730;DHT22;32476;50.002;11.854;2022-07-30T11:06:49;20.70;99.90
46730;DHT22;32476;50.002;11.854;2022-07-30T11:09:40;20.80;99.90
46730;DHT22;32476;50.002;11.854;2022-07-30T11:12:08;20.60;99.90
46730;DHT22;32476;50.002;11.854;2022-07-30T11:17:13;20.40;99.90
46730;DHT22;32476;50.002;11.854;2022-07-30T11:22:31;21.30;99.90
46730;DHT22;32476;50.002;11.854;2022-07-30T11:27:58;20.90;99.90
46730;DHT22;32476;50.002;11.854;2022-07-30T11:30:32;20.50;99.90
46730;DHT22;32476;50.002;11.854;2022-07-30T11:35:35;19.70;99.90
46730;DHT22;32476;50.002;11.854;2022-07-30T11:40:34;19.40;99.90
46730;DHT22;32476;50.002;11.854;2022-07-30T11:43:20;19.10;99.90
46730;DHT22;32476;50.002;11.854;2022-07-30T11:46:11;19.10;99.90
46730;DHT22;32476;50.002;11.854;2022-07-30T11:49:03;19.00;99.90
46730;DHT22;32476;50.002;11.854;2022-07-30T11:51:44;18.80;99.90
46730;DHT22;32476;50.002;11.854;2022-07-30T11:54:12;18.60;99.90
46730;DHT22;32476;50.002;11.854;2022-07-30T11:56:49;18.20;99.90
46730;DHT22;32476;50.002;11.854;2022-07-30T11:59:18;18.20;99.90
46730;DHT22;32476;50.002;11.854;2022-07-30T12:01:49;18.00;99.90
46730;DHT22;32476;50.002;11.854;2022-07-30T12:04:16;17.30;99.90
46730;DHT22;32476;50.002;11.854;2022-07-30T12:06:44;16.90;99.90
46730;DHT22;32476;50.002;11.854;2022-07-30T12:09:11;16.80;99.90
46730;DHT22;32476;50.002;11.854;2022-07-30T12:11:38;16.60;99.90
46730;DHT22;32476;50.002;11.854;2022-07-30T12:14:06;16.40;99.90
46730;DHT22;32476;50.002;11.854;2022-07-30T12:16:32;16.40;99.90
46730;DHT22;32476;50.002;11.854;2022-07-30T12:19:05;16.40;99.90
46730;DHT22;32476;50.002;11.854;2022-07-30T12:21:33;16.50;99.90
46730;DHT22;32476;50.002;11.854;2022-07-30T12:24:01;16.50;99.90
46730;DHT22;32476;50.002;11.854;2022-07-30T12:26:30;16.50;99.90
46730;DHT22;32476;50.002;11.854;2022-07-30T12:29:03;16.60;99.90
46730;DHT22;32476;50.002;11.854;2022-07-30T12:31:31;16.50;99.90
46730;DHT22;32476;50.002;11.854;2022-07-30T12:34:02;16.60;99.90
46730;DHT22;32476;50.002;11.854;2022-07-30T12:36:33;16.80;99.90
46730;DHT22;32476;50.002;11.854;2022-07-30T12:39:01;17.00;99.90
46730;DHT22;32476;50.002;11.854;2022-07-30T12:41:43;17.30;99.90
46730;DHT22;32476;50.002;11.854;2022-07-30T12:44:40;17.50;99.90
46730;DHT22;32476;50.002;11.854;2022-07-30T12:47:22;17.90;99.90
46730;DHT22;32476;50.002;11.854;2022-07-30T12:49:54;18.20;99.90
46730;DHT22;32476;50.002;11.854;2022-07-30T12:52:29;18.60;99.90
46730;DHT22;32476;50.002;11.854;2022-07-30T12:55:10;18.70;99.90
46730;DHT22;32476;50.002;11.854;2022-07-30T12:57:55;18.90;99.90
46730;DHT22;32476;50.002;11.854;2022-07-30T13:00:23;19.60;99.90
46730;DHT22;32476;50.002;11.854;2022-07-30T13:02:58;19.90;99.90
46730;DHT22;32476;50.002;11.854;2022-07-30T13:05:47;20.20;99.90
46730;DHT22;32476;50.002;11.854;2022-07-30T13:08:16;20.00;99.90
46730;DHT22;32476;50.002;11.854;2022-07-30T13:10:58;19.80;99.90
46730;DHT22;32476;50.002;11.854;2022-07-30T13:13:27;19.70;99.90
46730;DHT22;32476;50.002;11.854;2022-07-30T13:16:01;19.90;99.90
46730;DHT22;32476;50.002;11.854;2022-07-30T13:18:31;19.30;99.90
46730;DHT22;32476;50.002;11.854;2022-07-30T13:20:59;19.60;99.90
46730;DHT22;32476;50.002;11.854;2022-07-30T13:23:26;19.60;99.90
46730;DHT22;32476;50.002;11.854;2022-07-30T13:25:55;19.50;99.90
46730;DHT22;32476;50.002;11.854;2022-07-30T13:28:21;19.30;99.90
46730;DHT22;32476;50.002;11.854;2022-07-30T13:30:47;19.10;99.90
46730;DHT22;32476;50.002;11.854;2022-07-30T13:33:15;18.70;99.90
46730;DHT22;32476;50.002;11.854;2022-07-30T13:35:41;18.50;99.90
46730;DHT22;32476;50.002;11.854;2022-07-30T13:38:08;18.30;99.90
46730;DHT22;32476;50.002;11.854;2022-07-30T13:40:37;18.00;99.90
46730;DHT22;32476;50.002;11.854;2022-07-30T13:43:04;18.10;99.90
46730;DHT22;32476;50.002;11.854;2022-07-30T13:45:30;18.00;99.90
46730;DHT22;32476;50.002;11.854;2022-07-30T13:47:58;17.90;99.90
46730;DHT22;32476;50.002;11.854;2022-07-30T13:50:24;17.80;99.90
46730;DHT22;32476;50.002;11.854;2022-07-30T13:52:50;17.60;99.90
46730;DHT22;32476;50.002;11.854;2022-07-30T13:55:18;17.70;99.90
46730;DHT22;32476;50.002;11.854;2022-07-30T13:57:44;18.00;99.90
46730;DHT22;32476;50.002;11.854;2022-07-30T14:00:10;18.10;99.90
46730;DHT22;32476;50.002;11.854;2022-07-30T14:02:39;18.50;99.90
46730;DHT22;32476;50.002;11.854;2022-07-30T14:05:05;18.50;99.90
46730;DHT22;32476;50.002;11.854;2022-07-30T14:07:32;19.00;99.90
46730;DHT22;32476;50.002;11.854;2022-07-30T14:10:02;18.80;99.90
46730;DHT22;32476;50.002;11.854;2022-07-30T14:12:29;18.40;99.90
46730;DHT22;32476;50.002;11.854;2022-07-30T14:14:55;18.60;99.90
46730;DHT22;32476;50.002;11.854;2022-07-30T14:17:22;18.40;99.90
46730;DHT22;32476;50.002;11.854;2022-07-30T14:19:48;18.20;99.90
46730;DHT22;32476;50.002;11.854;2022-07-30T14:22:15;18.20;99.90
46730;DHT22;32476;50.002;11.854;2022-07-30T14:24:43;18.50;99.90
46730;DHT22;32476;50.002;11.854;2022-07-30T14:27:09;18.80;99.90
46730;DHT22;32476;50.002;11.854;2022-07-30T14:29:35;19.00;99.90
46730;DHT22;32476;50.002;11.854;2022-07-30T14:32:02;19.40;99.90
46730;DHT22;32476;50.002;11.854;2022-07-30T14:34:29;20.10;99.90
46730;DHT22;32476;50.002;11.854;2022-07-30T14:36:55;20.30;99.90
46730;DHT22;32476;50.002;11.854;2022-07-30T14:39:22;20.80;99.90
46730;DHT22;32476;50.002;11.854;2022-07-30T14:41:48;20.60;99.90
46730;DHT22;32476;50.002;11.854;2022-07-30T14:44:14;20.70;99.90
46730;DHT22;32476;50.002;11.854;2022-07-30T14:46:42;20.80;99.90
46730;DHT22;32476;50.002;11.854;2022-07-30T14:49:09;20.30;99.90
46730;DHT22;32476;50.002;11.854;2022-07-30T14:51:35;20.60;99.90
46730;DHT22;32476;50.002;11.854;2022-07-30T14:54:03;20.50;99.90
46730;DHT22;32476;50.002;11.854;2022-07-30T14:56:29;19.90;99.90
46730;DHT22;32476;50.002;11.854;2022-07-30T14:58:55;19.40;99.90
46730;DHT22;32476;50.002;11.854;2022-07-30T15:01:23;19.20;99.90
46730;DHT22;32476;50.002;11.854;2022-07-30T15:03:49;19.10;99.90
46730;DHT22;32476;50.002;11.854;2022-07-30T15:06:15;19.40;99.90
46730;DHT22;32476;50.002;11.854;2022-07-30T15:08:43;19.60;99.90
46730;DHT22;32476;50.002;11.854;2022-07-30T15:11:10;19.60;99.90
46730;DHT22;32476;50.002;11.854;2022-07-30T15:13:36;20.10;99.90
46730;DHT22;32476;50.002;11.854;2022-07-30T15:16:04;19.80;99.90
46730;DHT22;32476;50.002;11.854;2022-07-30T15:18:31;20.00;99.90
46730;DHT22;32476;50.002;11.854;2022-07-30T15:20:58;19.90;99.90
46730;DHT22;32476;50.002;11.854;2022-07-30T15:23:26;19.40;99.90
46730;DHT22;32476;50.002;11.854;2022-07-30T15:25:52;19.90;99.90
46730;DHT22;32476;50.002;11.854;2022-07-30T15:28:18;19.90;99.90
46730;DHT22;32476;50.002;11.854;2022-07-30T15:30:46;19.70;99.90
46730;DHT22;32476;50.002;11.854;2022-07-30T15:33:11;19.70;99.90
46730;DHT22;32476;50.002;11.854;2022-07-30T15:35:37;19.80;99.90
46730;DHT22;32476;50.002;11.854;2022-07-30T15:38:05;19.60;99.90
46730;DHT22;32476;50.002;11.854;2022-07-30T15:40:31;20.00;99.90
46730;DHT22;32476;50.002;11.854;2022-07-30T15:42:56;20.10;99.90
46730;DHT22;32476;50.002;11.854;2022-07-30T15:45:24;19.90;99.90
46730;DHT22;32476;50.002;11.854;2022-07-30T15:47:50;19.90;99.90
46730;DHT22;32476;50.002;11.854;2022-07-30T15:50:16;19.70;99.90
46730;DHT22;32476;50.002;11.854;2022-07-30T15:52:44;19.80;99.90
46730;DHT22;32476;50.002;11.854;2022-07-30T15:55:10;19.40;99.90
46730;DHT22;32476;50.002;11.854;2022-07-30T15:57:36;19.40;99.90
46730;DHT22;32476;50.002;11.854;2022-07-30T16:00:04;19.50;99.90
46730;DHT22;32476;50.002;11.854;2022-07-30T16:02:35;19.20;99.90
46730;DHT22;32476;50.002;11.854;2022-07-30T16:05:02;19.20;99.90